sensor_id;sensor_type;location;lat;lon;timestamp;P1;durP1;ratioP1;P2;durP2;ratioP2
38937;SDS011;24727;51.974;20.868;2023-06-22T00:00:52;18.73;;;16.92;;
38937;SDS011;24727;51.974;20.868;2023-06-22T00:03:19;18.50;;;16.58;;
38937;SDS011;24727;51.974;20.868;2023-06-22T00:05:46;17.20;;;15.18;;
38937;SDS011;24727;51.974;20.868;2023-06-22T00:08:13;18.40;;;16.52;;
38937;SDS011;24727;51.974;20.868;2023-06-22T00:10:39;18.88;;;16.98;;
38937;SDS011;24727;51.974;20.868;2023-06-22T00:13:05;18.00;;;16.17;;
38937;SDS011;24727;51.974;20.868;2023-06-22T00:15:32;19.95;;;17.95;;
38937;SDS011;24727;51.974;20.868;2023-06-22T00:17:58;19.33;;;17.42;;
38937;SDS011;24727;51.974;20.868;2023-06-22T00:20:25;18.20;;;16.30;;
38937;SDS011;24727;51.974;20.868;2023-06-22T00:22:55;19.05;;;17.15;;
38937;SDS011;24727;51.974;20.868;2023-06-22T00:25:21;19.77;;;17.77;;
38937;SDS011;24727;51.974;20.868;2023-06-22T00:27:48;19.67;;;17.80;;
38937;SDS011;24727;51.974;20.868;2023-06-22T00:30:17;18.52;;;16.67;;
38937;SDS011;24727;51.974;20.868;2023-06-22T00:32:44;18.02;;;16.25;;
38937;SDS011;24727;51.974;20.868;2023-06-22T00:35:14;19.45;;;16.98;;
38937;SDS011;24727;51.974;20.868;2023-06-22T00:37:40;19.98;;;18.08;;
38937;SDS011;24727;51.974;20.868;2023-06-22T00:40:07;20.98;;;18.80;;
38937;SDS011;24727;51.974;20.868;2023-06-22T00:42:37;21.73;;;18.08;;
38937;SDS011;24727;51.974;20.868;2023-06-22T00:45:04;18.00;;;16.23;;
38937;SDS011;24727;51.974;20.868;2023-06-22T00:47:31;18.92;;;17.05;;
38937;SDS011;24727;51.974;20.868;2023-06-22T00:49:59;20.00;;;18.00;;
38937;SDS011;24727;51.974;20.868;2023-06-22T00:52:25;18.90;;;16.90;;
38937;SDS011;24727;51.974;20.868;2023-06-22T00:54:55;18.90;;;17.00;;
38937;SDS011;24727;51.974;20.868;2023-06-22T00:57:22;18.65;;;16.67;;
38937;SDS011;24727;51.974;20.868;2023-06-22T00:59:53;25.17;;;16.80;;
38937;SDS011;24727;51.974;20.868;2023-06-22T01:02:19;20.40;;;18.08;;
38937;SDS011;24727;51.974;20.868;2023-06-22T01:04:45;22.40;;;18.75;;
38937;SDS011;24727;51.974;20.868;2023-06-22T01:12:52;19.65;;;17.30;;
38937;SDS011;24727;51.974;20.868;2023-06-22T01:18:05;18.90;;;17.00;;
38937;SDS011;24727;51.974;20.868;2023-06-22T01:20:34;18.35;;;16.55;;
38937;SDS011;24727;51.974;20.868;2023-06-22T01:25:38;18.85;;;16.98;;
38937;SDS011;24727;51.974;20.868;2023-06-22T01:31:12;20.23;;;18.00;;
38937;SDS011;24727;51.974;20.868;2023-06-22T01:33:41;21.50;;;18.33;;
38937;SDS011;24727;51.974;20.868;2023-06-22T01:36:09;20.15;;;18.15;;
38937;SDS011;24727;51.974;20.868;2023-06-22T01:38:35;18.30;;;16.33;;
38937;SDS011;24727;51.974;20.868;2023-06-22T01:41:03;21.85;;;19.25;;
38937;SDS011;24727;51.974;20.868;2023-06-22T01:43:29;20.60;;;18.40;;
38937;SDS011;24727;51.974;20.868;2023-06-22T01:45:56;17.83;;;16.08;;
38937;SDS011;24727;51.974;20.868;2023-06-22T01:48:25;18.33;;;15.98;;
38937;SDS011;24727;51.974;20.868;2023-06-22T01:50:52;19.52;;;16.08;;
38937;SDS011;24727;51.974;20.868;2023-06-22T01:53:20;20.63;;;18.58;;
38937;SDS011;24727;51.974;20.868;2023-06-22T01:55:47;20.58;;;16.98;;
38937;SDS011;24727;51.974;20.868;2023-06-22T01:58:13;20.08;;;17.27;;
38937;SDS011;24727;51.974;20.868;2023-06-22T02:00:39;22.67;;;20.38;;
38937;SDS011;24727;51.974;20.868;2023-06-22T02:03:13;21.55;;;19.20;;
38937;SDS011;24727;51.974;20.868;2023-06-22T02:05:46;20.05;;;17.35;;
38937;SDS011;24727;51.974;20.868;2023-06-22T02:08:25;21.13;;;18.92;;
38937;SDS011;24727;51.974;20.868;2023-06-22T02:10:56;23.25;;;20.17;;
38937;SDS011;24727;51.974;20.868;2023-06-22T02:13:24;22.50;;;19.00;;
38937;SDS011;24727;51.974;20.868;2023-06-22T02:15:50;23.55;;;21.15;;
38937;SDS011;24727;51.974;20.868;2023-06-22T02:18:17;23.63;;;20.58;;
38937;SDS011;24727;51.974;20.868;2023-06-22T02:20:43;26.90;;;21.23;;
38937;SDS011;24727;51.974;20.868;2023-06-22T02:23:09;22.42;;;20.02;;
38937;SDS011;24727;51.974;20.868;2023-06-22T02:25:35;21.33;;;19.13;;
38937;SDS011;24727;51.974;20.868;2023-06-22T02:28:01;26.23;;;23.42;;
38937;SDS011;24727;51.974;20.868;2023-06-22T02:30:27;26.52;;;20.83;;
38937;SDS011;24727;51.974;20.868;2023-06-22T02:32:53;24.83;;;22.02;;
38937;SDS011;24727;51.974;20.868;2023-06-22T02:35:29;28.63;;;25.13;;
38937;SDS011;24727;51.974;20.868;2023-06-22T02:38:00;28.98;;;25.08;;
38937;SDS011;24727;51.974;20.868;2023-06-22T02:40:28;33.05;;;29.45;;
38937;SDS011;24727;51.974;20.868;2023-06-22T02:42:56;39.65;;;32.60;;
38937;SDS011;24727;51.974;20.868;2023-06-22T02:45:26;53.35;;;39.45;;
38937;SDS011;24727;51.974;20.868;2023-06-22T02:47:52;56.90;;;42.00;;
38937;SDS011;24727;51.974;20.868;2023-06-22T02:50:18;56.30;;;43.35;;
38937;SDS011;24727;51.974;20.868;2023-06-22T02:52:43;65.03;;;45.80;;
38937;SDS011;24727;51.974;20.868;2023-06-22T02:55:09;62.20;;;44.92;;
38937;SDS011;24727;51.974;20.868;2023-06-22T02:57:35;62.35;;;44.90;;
38937;SDS011;24727;51.974;20.868;2023-06-22T03:00:02;63.90;;;47.08;;
38937;SDS011;24727;51.974;20.868;2023-06-22T03:02:41;64.30;;;45.78;;
38937;SDS011;24727;51.974;20.868;2023-06-22T03:05:08;68.97;;;48.13;;
38937;SDS011;24727;51.974;20.868;2023-06-22T03:07:38;70.10;;;48.08;;
38937;SDS011;24727;51.974;20.868;2023-06-22T03:10:08;68.35;;;46.72;;
38937;SDS011;24727;51.974;20.868;2023-06-22T03:12:35;73.32;;;47.78;;
38937;SDS011;24727;51.974;20.868;2023-06-22T03:15:01;62.40;;;45.30;;
38937;SDS011;24727;51.974;20.868;2023-06-22T03:17:27;63.00;;;46.15;;
38937;SDS011;24727;51.974;20.868;2023-06-22T03:19:53;65.88;;;45.05;;
38937;SDS011;24727;51.974;20.868;2023-06-22T03:22:19;69.13;;;46.10;;
38937;SDS011;24727;51.974;20.868;2023-06-22T03:24:45;63.67;;;43.90;;
38937;SDS011;24727;51.974;20.868;2023-06-22T03:27:10;61.35;;;42.33;;
38937;SDS011;24727;51.974;20.868;2023-06-22T03:29:36;60.78;;;42.83;;
38937;SDS011;24727;51.974;20.868;2023-06-22T03:32:02;59.30;;;44.10;;
38937;SDS011;24727;51.974;20.868;2023-06-22T03:34:30;62.03;;;43.05;;
38937;SDS011;24727;51.974;20.868;2023-06-22T03:36:59;57.08;;;41.30;;
38937;SDS011;24727;51.974;20.868;2023-06-22T03:39:25;56.13;;;39.83;;
38937;SDS011;24727;51.974;20.868;2023-06-22T03:41:51;58.28;;;41.00;;
38937;SDS011;24727;51.974;20.868;2023-06-22T03:44:16;52.78;;;40.83;;
38937;SDS011;24727;51.974;20.868;2023-06-22T03:46:42;53.65;;;38.35;;
38937;SDS011;24727;51.974;20.868;2023-06-22T03:49:08;53.35;;;39.08;;
38937;SDS011;24727;51.974;20.868;2023-06-22T03:51:34;55.15;;;39.33;;
38937;SDS011;24727;51.974;20.868;2023-06-22T03:54:00;49.85;;;36.78;;
38937;SDS011;24727;51.974;20.868;2023-06-22T03:56:25;50.60;;;38.28;;
38937;SDS011;24727;51.974;20.868;2023-06-22T03:58:51;50.47;;;38.15;;
38937;SDS011;24727;51.974;20.868;2023-06-22T04:01:17;49.75;;;37.65;;
38937;SDS011;24727;51.974;20.868;2023-06-22T04:03:43;50.08;;;37.00;;
38937;SDS011;24727;51.974;20.868;2023-06-22T04:06:09;45.05;;;35.08;;
38937;SDS011;24727;51.974;20.868;2023-06-22T04:08:35;41.88;;;34.03;;
38937;SDS011;24727;51.974;20.868;2023-06-22T04:11:01;45.78;;;34.63;;
38937;SDS011;24727;51.974;20.868;2023-06-22T04:13:27;46.03;;;33.63;;
38937;SDS011;24727;51.974;20.868;2023-06-22T04:15:53;43.25;;;33.28;;
38937;SDS011;24727;51.974;20.868;2023-06-22T04:18:19;41.03;;;32.13;;
38937;SDS011;24727;51.974;20.868;2023-06-22T04:20:45;44.17;;;31.98;;
38937;SDS011;24727;51.974;20.868;2023-06-22T04:23:12;38.40;;;30.25;;
38937;SDS011;24727;51.974;20.868;2023-06-22T04:25:38;38.85;;;30.67;;
38937;SDS011;24727;51.974;20.868;2023-06-22T04:28:04;40.92;;;29.67;;
38937;SDS011;24727;51.974;20.868;2023-06-22T04:30:37;38.38;;;30.27;;
38937;SDS011;24727;51.974;20.868;2023-06-22T04:33:11;34.95;;;28.75;;
38937;SDS011;24727;51.974;20.868;2023-06-22T04:35:38;34.55;;;28.48;;
38937;SDS011;24727;51.974;20.868;2023-06-22T04:38:06;37.25;;;27.15;;
38937;SDS011;24727;51.974;20.868;2023-06-22T04:40:32;33.45;;;27.25;;
38937;SDS011;24727;51.974;20.868;2023-06-22T04:42:58;35.28;;;27.02;;
38937;SDS011;24727;51.974;20.868;2023-06-22T04:45:27;33.80;;;27.33;;
38937;SDS011;24727;51.974;20.868;2023-06-22T04:47:54;34.97;;;27.20;;
38937;SDS011;24727;51.974;20.868;2023-06-22T04:50:20;33.40;;;27.83;;
38937;SDS011;24727;51.974;20.868;2023-06-22T04:52:47;34.33;;;26.88;;
38937;SDS011;24727;51.974;20.868;2023-06-22T04:55:13;35.30;;;27.67;;
38937;SDS011;24727;51.974;20.868;2023-06-22T04:57:44;33.65;;;26.73;;
38937;SDS011;24727;51.974;20.868;2023-06-22T05:00:23;32.47;;;26.30;;
38937;SDS011;24727;51.974;20.868;2023-06-22T05:02:48;33.65;;;26.45;;
38937;SDS011;24727;51.974;20.868;2023-06-22T05:05:15;30.52;;;24.90;;
38937;SDS011;24727;51.974;20.868;2023-06-22T05:07:45;35.55;;;26.35;;
38937;SDS011;24727;51.974;20.868;2023-06-22T05:10:15;32.17;;;25.77;;
38937;SDS011;24727;51.974;20.868;2023-06-22T05:12:42;33.42;;;24.90;;
38937;SDS011;24727;51.974;20.868;2023-06-22T05:15:08;29.88;;;25.17;;
38937;SDS011;24727;51.974;20.868;2023-06-22T05:17:34;34.38;;;25.75;;
38937;SDS011;24727;51.974;20.868;2023-06-22T05:20:01;30.98;;;24.85;;
38937;SDS011;24727;51.974;20.868;2023-06-22T05:22:31;30.45;;;24.60;;
38937;SDS011;24727;51.974;20.868;2023-06-22T05:24:57;32.65;;;24.63;;
38937;SDS011;24727;51.974;20.868;2023-06-22T05:27:23;36.30;;;25.38;;
38937;SDS011;24727;51.974;20.868;2023-06-22T05:29:49;30.63;;;24.20;;
38937;SDS011;24727;51.974;20.868;2023-06-22T05:32:15;30.83;;;25.50;;
38937;SDS011;24727;51.974;20.868;2023-06-22T05:34:40;28.55;;;23.75;;
38937;SDS011;24727;51.974;20.868;2023-06-22T05:37:06;26.50;;;22.15;;
38937;SDS011;24727;51.974;20.868;2023-06-22T05:39:34;30.35;;;23.25;;
38937;SDS011;24727;51.974;20.868;2023-06-22T05:42:03;28.83;;;22.95;;
38937;SDS011;24727;51.974;20.868;2023-06-22T05:44:33;30.33;;;22.92;;
38937;SDS011;24727;51.974;20.868;2023-06-22T05:47:00;27.00;;;22.95;;
38937;SDS011;24727;51.974;20.868;2023-06-22T05:49:26;26.13;;;21.98;;
38937;SDS011;24727;51.974;20.868;2023-06-22T05:51:57;26.23;;;22.53;;
38937;SDS011;24727;51.974;20.868;2023-06-22T05:54:24;27.58;;;21.67;;
38937;SDS011;24727;51.974;20.868;2023-06-22T05:56:50;24.55;;;21.15;;
38937;SDS011;24727;51.974;20.868;2023-06-22T05:59:16;27.70;;;22.15;;
38937;SDS011;24727;51.974;20.868;2023-06-22T06:01:43;29.20;;;21.00;;
38937;SDS011;24727;51.974;20.868;2023-06-22T06:04:09;24.73;;;21.95;;
38937;SDS011;24727;51.974;20.868;2023-06-22T06:06:34;25.08;;;20.92;;
38937;SDS011;24727;51.974;20.868;2023-06-22T06:09:03;24.75;;;21.40;;
38937;SDS011;24727;51.974;20.868;2023-06-22T06:11:29;26.15;;;20.83;;
38937;SDS011;24727;51.974;20.868;2023-06-22T06:13:55;23.33;;;19.58;;
38937;SDS011;24727;51.974;20.868;2023-06-22T06:16:21;26.92;;;20.05;;
38937;SDS011;24727;51.974;20.868;2023-06-22T06:18:48;24.30;;;18.50;;
38937;SDS011;24727;51.974;20.868;2023-06-22T06:21:15;26.23;;;19.35;;
38937;SDS011;24727;51.974;20.868;2023-06-22T06:23:41;28.38;;;19.38;;
38937;SDS011;24727;51.974;20.868;2023-06-22T06:26:08;21.42;;;18.92;;
38937;SDS011;24727;51.974;20.868;2023-06-22T06:28:34;24.27;;;18.77;;
38937;SDS011;24727;51.974;20.868;2023-06-22T06:31:00;20.92;;;18.40;;
38937;SDS011;24727;51.974;20.868;2023-06-22T06:33:26;21.63;;;17.08;;
38937;SDS011;24727;51.974;20.868;2023-06-22T06:35:52;18.98;;;16.67;;
38937;SDS011;24727;51.974;20.868;2023-06-22T06:38:18;17.40;;;15.60;;
38937;SDS011;24727;51.974;20.868;2023-06-22T06:40:44;16.58;;;14.50;;
38937;SDS011;24727;51.974;20.868;2023-06-22T06:43:10;15.52;;;14.02;;
38937;SDS011;24727;51.974;20.868;2023-06-22T06:45:36;16.10;;;13.93;;
38937;SDS011;24727;51.974;20.868;2023-06-22T06:48:02;14.73;;;13.13;;
38937;SDS011;24727;51.974;20.868;2023-06-22T06:50:28;13.68;;;12.23;;
38937;SDS011;24727;51.974;20.868;2023-06-22T06:52:54;12.65;;;11.32;;
38937;SDS011;24727;51.974;20.868;2023-06-22T06:55:21;11.30;;;10.20;;
38937;SDS011;24727;51.974;20.868;2023-06-22T06:57:50;11.40;;;10.20;;
38937;SDS011;24727;51.974;20.868;2023-06-22T07:00:17;12.68;;;10.82;;
38937;SDS011;24727;51.974;20.868;2023-06-22T07:02:44;11.65;;;10.48;;
38937;SDS011;24727;51.974;20.868;2023-06-22T07:05:11;12.68;;;10.18;;
38937;SDS011;24727;51.974;20.868;2023-06-22T07:07:37;10.38;;;9.20;;
38937;SDS011;24727;51.974;20.868;2023-06-22T07:10:04;14.70;;;9.30;;
38937;SDS011;24727;51.974;20.868;2023-06-22T07:12:31;13.23;;;9.20;;
38937;SDS011;24727;51.974;20.868;2023-06-22T07:15:03;9.63;;;8.68;;
38937;SDS011;24727;51.974;20.868;2023-06-22T07:17:31;10.90;;;8.15;;
38937;SDS011;24727;51.974;20.868;2023-06-22T07:19:57;10.88;;;8.63;;
38937;SDS011;24727;51.974;20.868;2023-06-22T07:22:23;12.02;;;7.60;;
38937;SDS011;24727;51.974;20.868;2023-06-22T07:24:48;11.82;;;8.10;;
38937;SDS011;24727;51.974;20.868;2023-06-22T07:27:14;9.93;;;7.50;;
38937;SDS011;24727;51.974;20.868;2023-06-22T07:29:44;10.27;;;6.90;;
38937;SDS011;24727;51.974;20.868;2023-06-22T07:32:09;7.15;;;6.43;;
38937;SDS011;24727;51.974;20.868;2023-06-22T07:34:36;8.45;;;6.47;;
38937;SDS011;24727;51.974;20.868;2023-06-22T07:37:01;8.00;;;7.20;;
38937;SDS011;24727;51.974;20.868;2023-06-22T07:39:28;8.98;;;7.13;;
38937;SDS011;24727;51.974;20.868;2023-06-22T07:41:54;14.23;;;6.80;;
38937;SDS011;24727;51.974;20.868;2023-06-22T07:44:20;6.30;;;5.70;;
38937;SDS011;24727;51.974;20.868;2023-06-22T07:46:47;8.20;;;5.65;;
38937;SDS011;24727;51.974;20.868;2023-06-22T07:49:13;6.20;;;5.50;;
38937;SDS011;24727;51.974;20.868;2023-06-22T07:51:39;5.88;;;5.28;;
38937;SDS011;24727;51.974;20.868;2023-06-22T07:54:05;5.50;;;4.90;;
38937;SDS011;24727;51.974;20.868;2023-06-22T07:56:31;6.35;;;5.60;;
38937;SDS011;24727;51.974;20.868;2023-06-22T07:58:58;6.05;;;5.50;;
38937;SDS011;24727;51.974;20.868;2023-06-22T08:01:26;8.43;;;5.45;;
38937;SDS011;24727;51.974;20.868;2023-06-22T08:03:52;7.28;;;5.97;;
38937;SDS011;24727;51.974;20.868;2023-06-22T08:06:18;7.20;;;4.97;;
38937;SDS011;24727;51.974;20.868;2023-06-22T08:08:44;5.10;;;4.57;;
38937;SDS011;24727;51.974;20.868;2023-06-22T08:11:13;4.75;;;4.35;;
38937;SDS011;24727;51.974;20.868;2023-06-22T08:13:39;5.05;;;4.55;;
38937;SDS011;24727;51.974;20.868;2023-06-22T08:16:07;5.18;;;4.63;;
38937;SDS011;24727;51.974;20.868;2023-06-22T08:18:33;9.10;;;5.10;;
38937;SDS011;24727;51.974;20.868;2023-06-22T08:20:59;5.18;;;4.25;;
38937;SDS011;24727;51.974;20.868;2023-06-22T08:23:27;6.15;;;5.55;;
38937;SDS011;24727;51.974;20.868;2023-06-22T08:25:53;9.20;;;5.28;;
38937;SDS011;24727;51.974;20.868;2023-06-22T08:28:19;5.78;;;4.40;;
38937;SDS011;24727;51.974;20.868;2023-06-22T08:30:44;4.13;;;3.72;;
38937;SDS011;24727;51.974;20.868;2023-06-22T08:33:11;6.32;;;3.90;;
38937;SDS011;24727;51.974;20.868;2023-06-22T08:35:38;7.32;;;3.75;;
38937;SDS011;24727;51.974;20.868;2023-06-22T08:38:04;5.35;;;4.20;;
38937;SDS011;24727;51.974;20.868;2023-06-22T08:40:30;7.15;;;4.13;;
38937;SDS011;24727;51.974;20.868;2023-06-22T08:42:58;5.25;;;4.57;;
38937;SDS011;24727;51.974;20.868;2023-06-22T08:45:24;5.38;;;3.78;;
38937;SDS011;24727;51.974;20.868;2023-06-22T08:47:50;6.78;;;3.85;;
38937;SDS011;24727;51.974;20.868;2023-06-22T08:50:16;4.28;;;3.50;;
38937;SDS011;24727;51.974;20.868;2023-06-22T08:52:42;4.60;;;3.90;;
38937;SDS011;24727;51.974;20.868;2023-06-22T08:55:09;4.57;;;3.35;;
38937;SDS011;24727;51.974;20.868;2023-06-22T08:57:35;5.28;;;3.47;;
38937;SDS011;24727;51.974;20.868;2023-06-22T09:00:05;4.10;;;3.70;;
38937;SDS011;24727;51.974;20.868;2023-06-22T09:02:46;4.13;;;3.72;;
38937;SDS011;24727;51.974;20.868;2023-06-22T09:05:12;4.07;;;3.47;;
38937;SDS011;24727;51.974;20.868;2023-06-22T09:07:39;6.30;;;3.80;;
38937;SDS011;24727;51.974;20.868;2023-06-22T09:10:05;4.25;;;3.85;;
38937;SDS011;24727;51.974;20.868;2023-06-22T09:12:33;4.03;;;3.60;;
38937;SDS011;24727;51.974;20.868;2023-06-22T09:15:00;5.97;;;3.70;;
38937;SDS011;24727;51.974;20.868;2023-06-22T09:17:27;5.28;;;3.20;;
38937;SDS011;24727;51.974;20.868;2023-06-22T09:19:53;8.05;;;3.15;;
38937;SDS011;24727;51.974;20.868;2023-06-22T09:22:18;3.63;;;3.33;;
38937;SDS011;24727;51.974;20.868;2023-06-22T09:24:45;3.78;;;3.35;;
38937;SDS011;24727;51.974;20.868;2023-06-22T09:27:11;8.35;;;3.25;;
38937;SDS011;24727;51.974;20.868;2023-06-22T09:29:38;4.15;;;3.72;;
38937;SDS011;24727;51.974;20.868;2023-06-22T09:32:04;3.45;;;3.15;;
38937;SDS011;24727;51.974;20.868;2023-06-22T09:34:32;6.20;;;3.55;;
38937;SDS011;24727;51.974;20.868;2023-06-22T09:37:04;6.00;;;3.25;;
38937;SDS011;24727;51.974;20.868;2023-06-22T09:41:58;5.30;;;3.08;;
38937;SDS011;24727;51.974;20.868;2023-06-22T09:44:25;4.22;;;2.78;;
38937;SDS011;24727;51.974;20.868;2023-06-22T09:46:53;4.28;;;2.83;;
38937;SDS011;24727;51.974;20.868;2023-06-22T09:49:18;3.63;;;3.17;;
38937;SDS011;24727;51.974;20.868;2023-06-22T09:51:51;3.28;;;2.78;;
38937;SDS011;24727;51.974;20.868;2023-06-22T09:54:18;5.57;;;2.80;;
38937;SDS011;24727;51.974;20.868;2023-06-22T11:07:08;4.32;;;3.08;;
38937;SDS011;24727;51.974;20.868;2023-06-22T11:09:35;3.75;;;2.75;;
38937;SDS011;24727;51.974;20.868;2023-06-22T11:12:01;4.35;;;3.30;;
38937;SDS011;24727;51.974;20.868;2023-06-22T11:14:27;4.55;;;2.63;;
38937;SDS011;24727;51.974;20.868;2023-06-22T11:16:53;4.80;;;3.10;;
38937;SDS011;24727;51.974;20.868;2023-06-22T11:19:20;4.13;;;2.85;;
38937;SDS011;24727;51.974;20.868;2023-06-22T11:21:46;8.00;;;3.15;;
38937;SDS011;24727;51.974;20.868;2023-06-22T11:24:12;5.22;;;2.78;;
38937;SDS011;24727;51.974;20.868;2023-06-22T11:26:38;4.85;;;3.28;;
38937;SDS011;24727;51.974;20.868;2023-06-22T11:29:03;3.33;;;3.03;;
38937;SDS011;24727;51.974;20.868;2023-06-22T11:31:31;3.72;;;3.15;;
38937;SDS011;24727;51.974;20.868;2023-06-22T11:34:01;4.20;;;3.78;;
38937;SDS011;24727;51.974;20.868;2023-06-22T11:36:27;12.63;;;3.70;;
38937;SDS011;24727;51.974;20.868;2023-06-22T11:38:56;7.07;;;3.42;;
38937;SDS011;24727;51.974;20.868;2023-06-22T11:41:22;5.72;;;3.50;;
38937;SDS011;24727;51.974;20.868;2023-06-22T11:43:48;3.53;;;3.20;;
38937;SDS011;24727;51.974;20.868;2023-06-22T11:46:14;7.93;;;3.15;;
38937;SDS011;24727;51.974;20.868;2023-06-22T11:48:40;3.65;;;3.10;;
38937;SDS011;24727;51.974;20.868;2023-06-22T11:51:07;6.15;;;3.20;;
38937;SDS011;24727;51.974;20.868;2023-06-22T11:53:33;5.63;;;2.67;;
38937;SDS011;24727;51.974;20.868;2023-06-22T11:56:01;3.30;;;2.95;;
38937;SDS011;24727;51.974;20.868;2023-06-22T11:58:27;4.45;;;3.20;;
38937;SDS011;24727;51.974;20.868;2023-06-22T12:00:53;3.50;;;3.20;;
38937;SDS011;24727;51.974;20.868;2023-06-22T12:03:19;5.90;;;4.03;;
38937;SDS011;24727;51.974;20.868;2023-06-22T12:05:46;4.97;;;3.40;;
38937;SDS011;24727;51.974;20.868;2023-06-22T12:08:14;6.75;;;3.90;;
38937;SDS011;24727;51.974;20.868;2023-06-22T12:10:40;4.10;;;3.70;;
38937;SDS011;24727;51.974;20.868;2023-06-22T12:13:06;3.70;;;3.40;;
38937;SDS011;24727;51.974;20.868;2023-06-22T12:15:33;4.88;;;3.58;;
38937;SDS011;24727;51.974;20.868;2023-06-22T12:17:59;5.45;;;3.53;;
38937;SDS011;24727;51.974;20.868;2023-06-22T12:20:26;4.15;;;3.25;;
38937;SDS011;24727;51.974;20.868;2023-06-22T12:22:52;6.57;;;3.70;;
38937;SDS011;24727;51.974;20.868;2023-06-22T12:25:20;8.02;;;3.17;;
38937;SDS011;24727;51.974;20.868;2023-06-22T12:27:47;3.53;;;3.22;;
38937;SDS011;24727;51.974;20.868;2023-06-22T12:30:12;6.60;;;4.47;;
38937;SDS011;24727;51.974;20.868;2023-06-22T12:32:38;6.25;;;3.47;;
38937;SDS011;24727;51.974;20.868;2023-06-22T12:35:06;3.03;;;2.72;;
38937;SDS011;24727;51.974;20.868;2023-06-22T12:40:03;5.70;;;3.40;;
38937;SDS011;24727;51.974;20.868;2023-06-22T12:42:29;3.03;;;2.70;;
38937;SDS011;24727;51.974;20.868;2023-06-22T12:44:55;3.78;;;2.80;;
38937;SDS011;24727;51.974;20.868;2023-06-22T12:47:21;7.10;;;3.45;;
38937;SDS011;24727;51.974;20.868;2023-06-22T12:49:47;3.05;;;2.78;;
38937;SDS011;24727;51.974;20.868;2023-06-22T12:52:14;3.97;;;2.78;;
38937;SDS011;24727;51.974;20.868;2023-06-22T12:54:41;4.95;;;3.20;;
38937;SDS011;24727;51.974;20.868;2023-06-22T12:57:07;5.57;;;4.13;;
38937;SDS011;24727;51.974;20.868;2023-06-22T12:59:34;3.72;;;3.42;;
38937;SDS011;24727;51.974;20.868;2023-06-22T13:02:01;4.32;;;3.58;;
38937;SDS011;24727;51.974;20.868;2023-06-22T13:04:27;4.35;;;3.40;;
38937;SDS011;24727;51.974;20.868;2023-06-22T13:06:54;3.15;;;2.83;;
38937;SDS011;24727;51.974;20.868;2023-06-22T13:09:20;6.55;;;3.10;;
38937;SDS011;24727;51.974;20.868;2023-06-22T13:11:47;4.35;;;3.95;;
38937;SDS011;24727;51.974;20.868;2023-06-22T13:14:13;6.68;;;4.43;;
38937;SDS011;24727;51.974;20.868;2023-06-22T13:16:41;5.03;;;3.88;;
38937;SDS011;24727;51.974;20.868;2023-06-22T13:19:07;3.88;;;3.58;;
38937;SDS011;24727;51.974;20.868;2023-06-22T13:21:33;5.28;;;3.83;;
38937;SDS011;24727;51.974;20.868;2023-06-22T13:23:59;3.97;;;3.58;;
38937;SDS011;24727;51.974;20.868;2023-06-22T13:26:26;3.65;;;3.35;;
38937;SDS011;24727;51.974;20.868;2023-06-22T13:28:55;3.72;;;3.33;;
38937;SDS011;24727;51.974;20.868;2023-06-22T13:31:20;7.25;;;3.75;;
38937;SDS011;24727;51.974;20.868;2023-06-22T13:33:47;8.52;;;3.65;;
38937;SDS011;24727;51.974;20.868;2023-06-22T13:36:14;5.00;;;4.50;;
38937;SDS011;24727;51.974;20.868;2023-06-22T13:38:40;6.40;;;3.90;;
38937;SDS011;24727;51.974;20.868;2023-06-22T13:41:06;4.20;;;3.80;;
38937;SDS011;24727;51.974;20.868;2023-06-22T13:43:33;4.20;;;3.80;;
38937;SDS011;24727;51.974;20.868;2023-06-22T13:45:59;5.82;;;3.20;;
38937;SDS011;24727;51.974;20.868;2023-06-22T13:48:25;7.50;;;3.70;;
38937;SDS011;24727;51.974;20.868;2023-06-22T13:50:54;3.55;;;3.08;;
38937;SDS011;24727;51.974;20.868;2023-06-22T13:53:21;4.25;;;3.20;;
38937;SDS011;24727;51.974;20.868;2023-06-22T13:55:47;4.90;;;3.95;;
38937;SDS011;24727;51.974;20.868;2023-06-22T13:58:14;4.70;;;3.33;;
38937;SDS011;24727;51.974;20.868;2023-06-22T14:00:42;10.18;;;3.40;;
38937;SDS011;24727;51.974;20.868;2023-06-22T14:03:08;4.78;;;3.47;;
38937;SDS011;24727;51.974;20.868;2023-06-22T14:05:33;4.50;;;3.10;;
38937;SDS011;24727;51.974;20.868;2023-06-22T14:07:59;8.45;;;3.58;;
38937;SDS011;24727;51.974;20.868;2023-06-22T14:10:25;6.15;;;3.58;;
38937;SDS011;24727;51.974;20.868;2023-06-22T14:12:52;6.03;;;3.95;;
38937;SDS011;24727;51.974;20.868;2023-06-22T14:15:18;8.45;;;3.92;;
38937;SDS011;24727;51.974;20.868;2023-06-22T14:17:44;4.72;;;3.80;;
38937;SDS011;24727;51.974;20.868;2023-06-22T14:20:10;3.95;;;3.55;;
38937;SDS011;24727;51.974;20.868;2023-06-22T14:22:37;5.68;;;4.03;;
38937;SDS011;24727;51.974;20.868;2023-06-22T14:25:04;7.10;;;3.88;;
38937;SDS011;24727;51.974;20.868;2023-06-22T14:27:30;4.25;;;3.85;;
38937;SDS011;24727;51.974;20.868;2023-06-22T14:29:57;8.02;;;3.72;;
38937;SDS011;24727;51.974;20.868;2023-06-22T14:32:23;8.02;;;4.03;;
38937;SDS011;24727;51.974;20.868;2023-06-22T14:34:49;5.35;;;3.80;;
38937;SDS011;24727;51.974;20.868;2023-06-22T14:37:15;6.35;;;3.30;;
38937;SDS011;24727;51.974;20.868;2023-06-22T14:39:41;6.70;;;4.00;;
38937;SDS011;24727;51.974;20.868;2023-06-22T14:42:08;5.25;;;3.63;;
38937;SDS011;24727;51.974;20.868;2023-06-22T14:44:34;3.85;;;3.47;;
38937;SDS011;24727;51.974;20.868;2023-06-22T14:47:00;12.88;;;4.70;;
38937;SDS011;24727;51.974;20.868;2023-06-22T14:49:26;6.60;;;4.22;;
38937;SDS011;24727;51.974;20.868;2023-06-22T14:51:53;4.95;;;3.78;;
38937;SDS011;24727;51.974;20.868;2023-06-22T14:54:20;4.03;;;3.70;;
38937;SDS011;24727;51.974;20.868;2023-06-22T14:56:47;6.15;;;3.92;;
38937;SDS011;24727;51.974;20.868;2023-06-22T14:59:14;3.88;;;3.47;;
38937;SDS011;24727;51.974;20.868;2023-06-22T15:01:40;5.20;;;3.53;;
38937;SDS011;24727;51.974;20.868;2023-06-22T15:04:06;4.18;;;3.88;;
38937;SDS011;24727;51.974;20.868;2023-06-22T15:06:32;8.52;;;3.83;;
38937;SDS011;24727;51.974;20.868;2023-06-22T15:08:59;3.88;;;3.58;;
38937;SDS011;24727;51.974;20.868;2023-06-22T15:11:25;5.00;;;3.65;;
38937;SDS011;24727;51.974;20.868;2023-06-22T15:13:51;5.00;;;3.55;;
38937;SDS011;24727;51.974;20.868;2023-06-22T15:16:16;8.73;;;4.22;;
38937;SDS011;24727;51.974;20.868;2023-06-22T15:18:42;4.25;;;3.60;;
38937;SDS011;24727;51.974;20.868;2023-06-22T15:21:08;7.13;;;3.95;;
38937;SDS011;24727;51.974;20.868;2023-06-22T15:23:34;4.20;;;3.53;;
38937;SDS011;24727;51.974;20.868;2023-06-22T15:26:03;4.75;;;3.50;;
38937;SDS011;24727;51.974;20.868;2023-06-22T15:28:30;4.53;;;3.45;;
38937;SDS011;24727;51.974;20.868;2023-06-22T15:30:57;5.75;;;3.92;;
38937;SDS011;24727;51.974;20.868;2023-06-22T15:33:23;8.55;;;3.92;;
38937;SDS011;24727;51.974;20.868;2023-06-22T15:35:52;5.15;;;3.92;;
38937;SDS011;24727;51.974;20.868;2023-06-22T15:38:21;3.90;;;3.50;;
38937;SDS011;24727;51.974;20.868;2023-06-22T15:40:47;6.85;;;3.47;;
38937;SDS011;24727;51.974;20.868;2023-06-22T15:43:13;6.25;;;3.58;;
38937;SDS011;24727;51.974;20.868;2023-06-22T15:45:39;5.30;;;4.28;;
38937;SDS011;24727;51.974;20.868;2023-06-22T15:48:05;4.35;;;3.60;;